Time;durP1;ratioP1;P1;durP2;ratioP2;P2;SDS_P1;SDS_P2;PMS_P1;PMS_P2;Temp;Humidity;BMP_temperature;BMP_pressure;BME280_temperature;BME280_humidity;BME280_pressure;Samples;Min_cycle;Max_cycle;Signal;HPM_P1;HPM_P2
2022/12/30 00:01:11;;;;;;;17.55;8.98;;;4.70;99.90;;;;;;5107612;28;20035;-70
2022/12/30 00:03:36;;;;;;;15.10;8.13;;;4.70;99.90;;;;;;5110415;28;20077;-70
2022/12/30 00:06:04;;;;;;;15.07;8.57;;;4.70;99.90;;;;;;5109440;28;20036;-70
2022/12/30 00:08:48;;;;;;;13.02;7.72;;;4.70;99.90;;;;;;5113057;27;20028;-70
2022/12/30 00:11:19;;;;;;;13.45;8.75;;;4.70;99.90;;;;;;5111574;28;20433;-70
2022/12/30 00:34:04;;;;;;;17.27;9.32;;;4.50;99.90;;;;;;5104469;28;20081;-69
2022/12/30 00:36:30;;;;;;;17.67;10.02;;;4.40;99.90;;;;;;5115147;28;20069;-69
2022/12/30 00:38:56;;;;;;;13.00;8.85;;;4.50;99.90;;;;;;5113325;28;20077;-69
2022/12/30 00:44:06;;;;;;;18.97;9.73;;;4.50;99.90;;;;;;5113524;28;20043;-69
2022/12/30 00:46:33;;;;;;;15.60;10.32;;;4.60;99.90;;;;;;5114792;28;20266;-69
2022/12/30 00:57:12;;;;;;;13.87;8.70;;;4.40;99.90;;;;;;5113461;28;20538;-69
2022/12/30 00:59:37;;;;;;;15.50;9.30;;;4.50;99.90;;;;;;5113085;28;20043;-69
2022/12/30 01:02:03;;;;;;;18.17;10.43;;;4.50;99.90;;;;;;5114849;27;20035;-69
2022/12/30 01:04:29;;;;;;;13.70;9.05;;;4.40;99.90;;;;;;5113097;28;20081;-69
2022/12/30 01:06:55;;;;;;;15.20;8.90;;;4.40;99.90;;;;;;5114884;28;20047;-69
2022/12/30 01:09:22;;;;;;;14.50;10.02;;;4.50;99.90;;;;;;5112901;28;20032;-69
2022/12/30 01:12:07;;;;;;;16.92;9.68;;;4.50;99.90;;;;;;5113831;28;20035;-69
2022/12/30 01:14:37;;;;;;;15.45;9.65;;;4.50;99.90;;;;;;5114742;28;20049;-69
2022/12/30 01:17:04;;;;;;;13.02;8.65;;;4.50;99.90;;;;;;5113354;28;20031;-69
2022/12/30 01:19:30;;;;;;;14.02;9.27;;;4.50;99.90;;;;;;5114531;28;20035;-69
2022/12/30 01:21:55;;;;;;;20.10;13.27;;;4.40;99.90;;;;;;5112886;28;20035;-69
2022/12/30 01:24:22;;;;;;;20.67;11.73;;;4.50;99.90;;;;;;5114639;28;20034;-69
2022/12/30 01:26:47;;;;;;;16.75;9.50;;;4.50;99.90;;;;;;5113175;28;20051;-69
2022/12/30 01:29:28;;;;;;;15.48;8.98;;;4.30;99.90;;;;;;5109043;28;20028;-69
2022/12/30 01:31:58;;;;;;;13.13;8.75;;;4.30;99.90;;;;;;5113119;27;20035;-69
2022/12/30 01:34:24;;;;;;;16.30;9.32;;;4.40;99.90;;;;;;5112992;28;20489;-69
2022/12/30 01:36:50;;;;;;;13.82;9.30;;;4.40;99.90;;;;;;5112661;28;20392;-69
2022/12/30 01:39:16;;;;;;;12.88;8.50;;;4.40;99.90;;;;;;5103011;27;20031;-69
2022/12/30 01:41:41;;;;;;;15.25;8.40;;;4.40;99.90;;;;;;5093591;28;20098;-69
2022/12/30 01:44:44;;;;;;;13.20;8.38;;;4.30;99.90;;;;;;5092894;28;20027;-69
2022/12/30 01:47:15;;;;;;;17.23;9.88;;;4.40;99.90;;;;;;5093315;28;20531;-69
2022/12/30 01:49:45;;;;;;;16.10;9.07;;;4.40;99.90;;;;;;5093444;28;20024;-69
2022/12/30 01:52:12;;;;;;;15.77;9.57;;;4.20;99.90;;;;;;5112541;28;20026;-70
2022/12/30 01:54:38;;;;;;;13.75;8.18;;;4.10;99.90;;;;;;5109051;27;20385;-69
2022/12/30 01:57:05;;;;;;;12.30;8.35;;;4.20;99.90;;;;;;5094422;28;20036;-69
2022/12/30 01:59:32;;;;;;;17.50;10.68;;;4.30;99.90;;;;;;5105464;28;20036;-69
2022/12/30 02:01:58;;;;;;;14.13;8.77;;;4.30;99.90;;;;;;5093496;28;20060;-70
2022/12/30 02:04:27;;;;;;;15.63;9.55;;;4.40;99.90;;;;;;5092249;28;20074;-70
2022/12/30 02:07:01;;;;;;;18.20;10.10;;;4.30;99.90;;;;;;5092860;28;20032;-71
2022/12/30 02:09:29;;;;;;;17.55;9.65;;;4.40;99.90;;;;;;5095228;28;20095;-70
2022/12/30 02:11:56;;;;;;;14.55;9.60;;;4.40;99.90;;;;;;5093224;28;20026;-70
2022/12/30 02:14:23;;;;;;;15.30;9.48;;;4.40;99.90;;;;;;5092013;28;20073;-70
2022/12/30 02:17:00;;;;;;;16.00;9.77;;;4.40;99.90;;;;;;5092778;28;20474;-70
2022/12/30 02:19:44;;;;;;;13.75;8.88;;;4.50;99.90;;;;;;5108537;28;20039;-70
2022/12/30 02:22:16;;;;;;;13.95;9.00;;;4.50;99.90;;;;;;5093109;28;20047;-70
2022/12/30 02:24:45;;;;;;;15.15;10.05;;;4.40;99.90;;;;;;5110174;28;20035;-70
2022/12/30 02:27:17;;;;;;;13.75;9.43;;;4.40;99.90;;;;;;5112833;28;20044;-71
2022/12/30 02:30:01;;;;;;;18.25;9.70;;;4.30;99.90;;;;;;5111908;28;20401;-70
2022/12/30 02:32:41;;;;;;;14.63;9.23;;;4.20;99.90;;;;;;5113435;28;20020;-70
2022/12/30 02:35:25;;;;;;;16.55;10.57;;;4.20;99.90;;;;;;5093042;28;20028;-71
2022/12/30 02:38:08;;;;;;;18.40;9.45;;;4.30;99.90;;;;;;5093173;28;20454;-70
2022/12/30 02:46:39;;;;;;;12.52;8.50;;;4.40;99.90;;;;;;5096796;28;20081;-70
2022/12/30 02:49:06;;;;;;;;;;;4.40;99.90;;;;;;5113491;28;20397;-70
2022/12/30 02:54:18;;;;;;;15.68;9.43;;;4.50;99.90;;;;;;5112657;28;20128;-70
2022/12/30 02:56:48;;;;;;;16.05;9.80;;;4.50;99.90;;;;;;5111594;28;20051;-70
2022/12/30 03:05:17;;;;;;;14.27;10.07;;;4.10;99.90;;;;;;5111402;28;20445;-70
2022/12/30 03:08:01;;;;;;;17.30;8.98;;;4.20;99.90;;;;;;5112796;28;20031;-70
2022/12/30 03:13:27;;;;;;;15.30;9.02;;;4.10;99.90;;;;;;5112959;28;20139;-70
2022/12/30 03:16:02;;;;;;;15.85;8.75;;;4.10;99.90;;;;;;5097413;28;20035;-70
2022/12/30 03:18:29;;;;;;;15.90;10.25;;;4.10;99.90;;;;;;5092150;28;20084;-70
2022/12/30 03:20:55;;;;;;;17.90;10.00;;;4.10;99.90;;;;;;5110654;28;20155;-70
2022/12/30 03:28:55;;;;;;;16.27;10.75;;;4.30;99.90;;;;;;5116754;28;20038;-70
2022/12/30 03:31:21;;;;;;;15.55;9.48;;;4.30;99.90;;;;;;5114977;28;20032;-71
2022/12/30 03:33:47;;;;;;;15.98;9.63;;;4.30;99.90;;;;;;5116702;28;20494;-70
2022/12/30 03:36:51;;;;;;;13.93;8.85;;;4.30;99.90;;;;;;5115386;28;20469;-70
2022/12/30 03:39:23;;;;;;;18.95;9.63;;;4.40;99.90;;;;;;5072953;28;20115;-70
2022/12/30 03:41:50;;;;;;;16.48;9.50;;;4.30;99.90;;;;;;5092180;28;20040;-70
2022/12/30 03:44:18;;;;;;;15.93;9.32;;;4.30;99.90;;;;;;5095622;28;20073;-70
2022/12/30 03:46:45;;;;;;;15.43;9.40;;;4.30;99.90;;;;;;5115972;28;20052;-70
2022/12/30 03:49:11;;;;;;;13.57;8.90;;;4.30;99.90;;;;;;5116295;28;20039;-70
2022/12/30 03:51:37;;;;;;;14.32;9.15;;;4.20;99.90;;;;;;5114785;28;20049;-70
2022/12/30 03:54:03;;;;;;;14.27;8.95;;;4.10;99.90;;;;;;5116074;28;20020;-70
2022/12/30 03:56:28;;;;;;;17.63;10.52;;;4.10;99.90;;;;;;5114539;28;20524;-70
2022/12/30 03:58:54;;;;;;;15.10;9.85;;;4.20;99.90;;;;;;5115713;28;20063;-70
2022/12/30 04:01:20;;;;;;;16.67;10.35;;;4.20;99.90;;;;;;5097816;28;20051;-70
2022/12/30 04:03:46;;;;;;;16.95;11.15;;;4.20;99.90;;;;;;5092104;28;20032;-71
2022/12/30 04:06:12;;;;;;;17.20;10.23;;;4.20;99.90;;;;;;5105073;28;20106;-71
2022/12/30 04:08:38;;;;;;;16.42;9.75;;;4.30;99.90;;;;;;5109519;28;20031;-71
2022/12/30 04:11:04;;;;;;;13.82;8.95;;;4.30;99.90;;;;;;5110553;28;20100;-70
2022/12/30 04:13:29;;;;;;;13.15;8.93;;;4.30;99.90;;;;;;5102418;28;20071;-71
2022/12/30 04:15:56;;;;;;;16.35;10.38;;;4.20;99.90;;;;;;5090379;28;20020;-71
2022/12/30 04:18:22;;;;;;;13.05;8.13;;;4.30;99.90;;;;;;5092887;28;20035;-71
2022/12/30 04:20:48;;;;;;;13.95;7.75;;;4.20;99.90;;;;;;5107792;28;20400;-71
2022/12/30 04:23:14;;;;;;;13.75;9.27;;;4.30;99.90;;;;;;5108494;28;20020;-70
2022/12/30 04:25:40;;;;;;;11.63;7.13;;;4.30;99.90;;;;;;5110846;28;20040;-71
2022/12/30 04:28:06;;;;;;;12.50;8.07;;;4.40;99.90;;;;;;5109718;28;20062;-71
2022/12/30 04:30:33;;;;;;;10.00;6.35;;;4.30;99.90;;;;;;5110842;27;20080;-70
2022/12/30 04:32:59;;;;;;;12.23;7.40;;;4.50;99.90;;;;;;5109005;28;20028;-71
2022/12/30 04:35:25;;;;;;;13.40;7.75;;;4.40;99.90;;;;;;5092361;28;20063;-71
2022/12/30 04:37:50;;;;;;;11.88;7.38;;;4.40;99.90;;;;;;5089559;28;20054;-71
2022/12/30 04:40:17;;;;;;;13.80;8.68;;;4.30;99.90;;;;;;5109037;28;20042;-70
2022/12/30 04:42:43;;;;;;;13.25;6.88;;;4.40;99.90;;;;;;5110745;28;20036;-71
2022/12/30 04:45:11;;;;;;;12.13;6.53;;;4.40;99.90;;;;;;5109497;28;20035;-71
2022/12/30 04:47:37;;;;;;;9.80;5.93;;;4.40;99.90;;;;;;5110756;28;20032;-70
2022/12/30 04:50:03;;;;;;;10.48;6.68;;;4.60;99.90;;;;;;5109033;28;20035;-71
2022/12/30 04:52:29;;;;;;;11.18;6.18;;;4.60;99.90;;;;;;5110592;28;20074;-71
2022/12/30 04:54:55;;;;;;;9.65;6.38;;;4.50;99.90;;;;;;5104800;28;20454;-71
2022/12/30 04:57:20;;;;;;;14.50;7.55;;;4.50;99.90;;;;;;5092388;28;20027;-71
2022/12/30 04:59:46;;;;;;;12.98;6.05;;;4.50;99.90;;;;;;5086552;28;20111;-71
2022/12/30 05:02:12;;;;;;;10.55;6.18;;;4.40;99.90;;;;;;5093744;28;20088;-71
2022/12/30 05:04:38;;;;;;;13.65;6.47;;;4.40;99.90;;;;;;5107593;28;20118;-71
2022/12/30 05:07:03;;;;;;;11.15;6.53;;;4.30;99.90;;;;;;5106058;28;20038;-71
2022/12/30 05:09:29;;;;;;;13.55;6.25;;;4.30;99.90;;;;;;5106846;28;20036;-70
2022/12/30 05:11:55;;;;;;;11.60;7.25;;;4.30;99.90;;;;;;5106138;28;20855;-70
2022/12/30 05:14:20;;;;;;;10.85;6.63;;;4.30;99.90;;;;;;5097991;28;20501;-70
2022/12/30 05:16:46;;;;;;;10.10;6.35;;;4.40;99.90;;;;;;5088274;28;20039;-71
2022/12/30 05:19:12;;;;;;;10.18;6.43;;;4.30;99.90;;;;;;5106540;28;20042;-71
2022/12/30 05:21:38;;;;;;;11.55;7.10;;;4.50;99.90;;;;;;5105307;28;20027;-71
2022/12/30 05:26:48;;;;;;;14.52;7.78;;;4.30;99.90;;;;;;5105090;28;20117;-70
2022/12/30 05:29:14;;;;;;;13.80;8.10;;;4.20;99.90;;;;;;5106895;28;20027;-71
2022/12/30 05:31:40;;;;;;;19.33;7.63;;;4.00;99.90;;;;;;5105782;28;20019;-71
2022/12/30 05:34:06;;;;;;;13.98;7.18;;;3.90;99.90;;;;;;5089077;28;20545;-71
2022/12/30 05:36:32;;;;;;;11.27;7.20;;;4.00;99.90;;;;;;5086449;28;20024;-71
2022/12/30 05:38:57;;;;;;;13.73;8.00;;;4.00;99.90;;;;;;5100664;28;20024;-71
2022/12/30 05:41:23;;;;;;;14.73;7.53;;;4.10;99.90;;;;;;5086763;28;20048;-71
2022/12/30 05:43:49;;;;;;;18.10;7.68;;;4.20;99.90;;;;;;5085357;28;20035;-71
2022/12/30 05:46:15;;;;;;;13.13;6.70;;;4.10;99.90;;;;;;5101162;28;20024;-71
2022/12/30 05:48:41;;;;;;;14.25;6.50;;;4.10;99.90;;;;;;5106436;28;20027;-70
2022/12/30 05:51:06;;;;;;;13.18;6.25;;;4.30;99.90;;;;;;5101253;28;20055;-71
2022/12/30 05:53:32;;;;;;;11.77;6.18;;;4.30;99.90;;;;;;5102464;28;20035;-71
2022/12/30 05:56:00;;;;;;;11.55;6.90;;;4.20;99.90;;;;;;5101187;28;20027;-70
2022/12/30 05:58:26;;;;;;;14.40;7.28;;;4.30;99.90;;;;;;5105471;28;20148;-71
2022/12/30 06:00:52;;;;;;;11.10;6.78;;;4.40;99.90;;;;;;5106562;28;20114;-71
2022/12/30 06:03:17;;;;;;;9.63;5.82;;;4.40;99.90;;;;;;5107902;28;20039;-71
2022/12/30 06:05:43;;;;;;;10.13;6.45;;;4.40;99.90;;;;;;5109005;28;20028;-71
2022/12/30 06:08:10;;;;;;;9.80;6.20;;;4.40;99.90;;;;;;5107855;28;20514;-71
2022/12/30 06:10:36;;;;;;;11.43;6.53;;;4.40;99.90;;;;;;5109635;28;20035;-71
2022/12/30 06:13:01;;;;;;;13.13;7.25;;;4.40;99.90;;;;;;5100603;28;20028;-71
2022/12/30 06:15:27;;;;;;;14.80;6.85;;;4.30;99.90;;;;;;5091357;28;20028;-71
2022/12/30 06:17:53;;;;;;;11.50;7.30;;;4.30;99.90;;;;;;5099006;28;20025;-71
2022/12/30 06:20:18;;;;;;;10.93;6.05;;;4.20;99.90;;;;;;5089193;28;20482;-71
2022/12/30 06:22:44;;;;;;;10.60;6.03;;;4.20;99.90;;;;;;5109203;28;20098;-71
2022/12/30 06:25:10;;;;;;;11.85;5.72;;;4.40;99.90;;;;;;5109218;28;20050;-70
2022/12/30 06:27:35;;;;;;;13.52;6.50;;;4.40;99.90;;;;;;5108385;28;20040;-71
2022/12/30 06:30:02;;;;;;;11.32;6.65;;;4.40;99.90;;;;;;5109044;28;20067;-71
2022/12/30 06:32:27;;;;;;;10.18;6.35;;;4.40;99.90;;;;;;5107824;28;20032;-71
2022/12/30 06:34:53;;;;;;;16.77;9.02;;;4.40;99.90;;;;;;5107299;28;20531;-71
2022/12/30 06:37:19;;;;;;;19.38;10.90;;;4.30;99.90;;;;;;5103995;28;20091;-70
2022/12/30 06:39:44;;;;;;;18.48;10.32;;;4.20;99.90;;;;;;5108446;28;20073;-71
2022/12/30 06:42:10;;;;;;;12.00;7.95;;;4.20;99.90;;;;;;5107559;28;20461;-71
2022/12/30 06:44:36;;;;;;;8.60;5.80;;;4.20;99.90;;;;;;5108810;28;20038;-71
2022/12/30 06:47:01;;;;;;;13.05;5.80;;;4.30;99.90;;;;;;5107408;28;20054;-71
2022/12/30 06:49:27;;;;;;;10.48;6.78;;;4.40;99.90;;;;;;5107241;28;20414;-71
2022/12/30 06:51:53;;;;;;;11.07;6.38;;;4.60;99.90;;;;;;5105466;28;20114;-71
2022/12/30 06:54:18;;;;;;;9.45;5.55;;;4.70;99.90;;;;;;5111028;28;20024;-71
2022/12/30 06:56:44;;;;;;;12.57;7.18;;;4.70;99.90;;;;;;5111992;28;20583;-71
2022/12/30 06:59:10;;;;;;;10.93;6.35;;;4.60;99.90;;;;;;5112931;28;20070;-71
2022/12/30 07:01:36;;;;;;;10.13;6.03;;;4.30;99.90;;;;;;5111644;28;20101;-71
2022/12/30 07:04:01;;;;;;;7.65;5.13;;;4.50;99.90;;;;;;5112666;27;20386;-71
2022/12/30 07:06:27;;;;;;;9.23;5.57;;;4.40;99.90;;;;;;5111534;28;20035;-71
2022/12/30 07:08:52;;;;;;;9.18;5.35;;;4.50;99.90;;;;;;5112372;28;20038;-71
2022/12/30 07:11:18;;;;;;;9.60;5.13;;;4.60;99.90;;;;;;5111020;28;20073;-70
2022/12/30 07:13:44;;;;;;;10.50;4.90;;;4.70;99.90;;;;;;5111785;28;20028;-71
2022/12/30 07:16:09;;;;;;;13.98;6.35;;;4.70;99.90;;;;;;5098839;28;20023;-71
2022/12/30 07:18:35;;;;;;;9.18;5.65;;;4.60;99.90;;;;;;5092114;28;20038;-71
2022/12/30 07:21:01;;;;;;;12.50;6.95;;;4.50;99.90;;;;;;5104109;28;20050;-71
2022/12/30 07:23:26;;;;;;;12.55;7.57;;;4.40;99.90;;;;;;5112404;28;20073;-71
2022/12/30 07:25:52;;;;;;;16.42;7.72;;;4.30;99.90;;;;;;5110493;27;20430;-71
2022/12/30 07:28:17;;;;;;;11.32;7.28;;;4.40;99.90;;;;;;5112129;28;20103;-71
2022/12/30 07:30:43;;;;;;;13.77;6.75;;;4.40;99.90;;;;;;5110529;28;20152;-71
2022/12/30 07:33:09;;;;;;;13.43;7.82;;;4.30;99.90;;;;;;5111939;28;20114;-70
2022/12/30 07:35:34;;;;;;;11.35;7.00;;;4.30;99.90;;;;;;5103739;28;20040;-71
2022/12/30 07:38:00;;;;;;;13.88;7.95;;;4.30;99.90;;;;;;5091941;28;20056;-71
2022/12/30 07:40:26;;;;;;;14.23;7.85;;;4.40;99.90;;;;;;5091347;28;20109;-71
2022/12/30 07:42:51;;;;;;;12.00;7.45;;;4.50;99.90;;;;;;5091788;28;20028;-71
2022/12/30 07:45:18;;;;;;;10.43;6.65;;;4.50;99.90;;;;;;5089107;28;20039;-71
2022/12/30 07:47:43;;;;;;;11.52;6.60;;;4.40;99.90;;;;;;5091345;28;20024;-71
2022/12/30 07:50:10;;;;;;;11.88;6.57;;;4.30;99.90;;;;;;5110367;28;20153;-71
2022/12/30 07:52:36;;;;;;;14.10;6.88;;;4.50;99.90;;;;;;5112136;28;20047;-71
2022/12/30 07:55:02;;;;;;;11.75;6.90;;;4.50;99.90;;;;;;5093026;28;20047;-70
2022/12/30 07:57:28;;;;;;;33.65;18.38;;;4.50;99.90;;;;;;5091701;28;20385;-71
2022/12/30 07:59:55;;;;;;;35.42;18.60;;;4.40;99.90;;;;;;5106948;28;20031;-71
2022/12/30 08:02:21;;;;;;;22.95;14.82;;;4.30;99.90;;;;;;5105982;28;20027;-71
2022/12/30 08:04:46;;;;;;;20.30;12.05;;;4.40;99.90;;;;;;5111512;28;20102;-71
2022/12/30 08:07:14;;;;;;;20.30;10.23;;;4.30;99.90;;;;;;5109634;28;20108;-71
2022/12/30 08:09:40;;;;;;;21.65;10.35;;;4.30;99.90;;;;;;5111579;28;20206;-71
2022/12/30 08:12:05;;;;;;;14.73;9.27;;;4.40;99.90;;;;;;5100911;28;20051;-71
2022/12/30 08:14:31;;;;;;;12.30;7.88;;;4.50;99.90;;;;;;5111246;28;20055;-71
2022/12/30 08:16:57;;;;;;;12.25;7.57;;;4.50;99.90;;;;;;5093827;28;20032;-71
2022/12/30 08:19:22;;;;;;;11.07;6.90;;;4.50;99.90;;;;;;5090725;28;20059;-71
2022/12/30 08:21:48;;;;;;;11.07;6.72;;;4.60;99.90;;;;;;5104733;28;20039;-71
2022/12/30 08:24:14;;;;;;;13.30;6.40;;;4.70;99.90;;;;;;5109700;28;20120;-71
2022/12/30 08:26:39;;;;;;;16.67;9.00;;;4.90;99.90;;;;;;5091159;28;20627;-71
2022/12/30 08:29:05;;;;;;;21.73;10.43;;;4.70;99.90;;;;;;5094732;28;20027;-71
2022/12/30 08:31:31;;;;;;;16.17;8.60;;;4.60;99.90;;;;;;5111093;28;20072;-71
2022/12/30 08:33:57;;;;;;;16.55;9.43;;;4.70;99.90;;;;;;5107669;28;20055;-71
2022/12/30 08:36:25;;;;;;;15.73;8.20;;;4.70;99.90;;;;;;5090395;28;20026;-70
2022/12/30 08:38:54;;;;;;;11.80;8.10;;;4.80;99.90;;;;;;5090557;28;20055;-71
2022/12/30 08:41:25;;;;;;;14.70;9.15;;;4.80;99.90;;;;;;5109738;28;20073;-71
2022/12/30 08:43:52;;;;;;;14.60;8.20;;;4.90;99.90;;;;;;5109312;28;20032;-71
2022/12/30 08:46:18;;;;;;;17.40;8.65;;;4.90;99.90;;;;;;5089454;28;20115;-71
2022/12/30 08:48:45;;;;;;;15.60;8.32;;;4.90;99.90;;;;;;5105984;28;20092;-71
2022/12/30 08:51:11;;;;;;;12.32;7.90;;;4.90;99.90;;;;;;5090428;28;20020;-71
2022/12/30 08:53:37;;;;;;;16.83;8.52;;;4.90;99.90;;;;;;5096315;28;20397;-70
2022/12/30 08:56:05;;;;;;;16.45;9.18;;;4.90;99.90;;;;;;5103456;28;20035;-71
2022/12/30 08:58:32;;;;;;;13.98;7.45;;;4.90;99.90;;;;;;5109599;27;20034;-71
2022/12/30 09:00:58;;;;;;;18.42;10.27;;;4.90;99.90;;;;;;5110406;28;20478;-71
2022/12/30 09:03:24;;;;;;;15.30;8.75;;;4.90;99.90;;;;;;5110429;28;20123;-71
2022/12/30 09:05:53;;;;;;;14.02;10.00;;;5.00;99.90;;;;;;5106724;28;20039;-71
2022/12/30 09:08:19;;;;;;;16.55;8.68;;;5.10;99.90;;;;;;5089799;28;20032;-70
2022/12/30 09:10:55;;;;;;;15.27;7.05;;;5.10;99.90;;;;;;5090619;28;20531;-70
2022/12/30 09:13:20;;;;;;;14.50;8.05;;;5.10;99.90;;;;;;5110387;28;20069;-71
2022/12/30 09:15:46;;;;;;;19.55;9.73;;;5.20;99.90;;;;;;5109854;28;20047;-71
2022/12/30 09:18:12;;;;;;;14.13;7.40;;;5.30;99.90;;;;;;5108671;28;20024;-71
2022/12/30 09:20:37;;;;;;;16.88;8.35;;;5.20;99.90;;;;;;5107998;28;20035;-71
2022/12/30 09:23:03;;;;;;;15.30;8.75;;;5.20;99.90;;;;;;5109472;28;20482;-71
2022/12/30 09:25:28;;;;;;;15.43;9.57;;;5.30;99.90;;;;;;5101053;28;20600;-72
2022/12/30 09:27:54;;;;;;;15.80;9.98;;;5.30;99.90;;;;;;5089113;28;20035;-70
2022/12/30 09:30:20;;;;;;;15.27;9.60;;;5.50;99.90;;;;;;5101895;28;20108;-71
2022/12/30 09:32:45;;;;;;;17.17;9.10;;;5.60;99.90;;;;;;5108155;28;20149;-71
2022/12/30 09:35:11;;;;;;;17.30;9.93;;;5.70;99.90;;;;;;5105236;28;20062;-71
2022/12/30 09:37:38;;;;;;;18.10;12.73;;;5.60;99.90;;;;;;5109771;28;20024;-71
2022/12/30 09:40:04;;;;;;;15.65;9.80;;;5.50;99.90;;;;;;5101810;28;20031;-71
2022/12/30 09:45:26;;;;;;;16.55;9.65;;;5.80;99.90;;;;;;5109707;28;20039;-71
2022/12/30 09:47:56;;;;;;;14.40;8.95;;;5.90;99.90;;;;;;5108856;28;20385;-71
2022/12/30 09:50:40;;;;;;;20.02;8.40;;;5.90;99.90;;;;;;5109032;28;20062;-71
2022/12/30 09:53:08;;;;;;;17.90;10.65;;;6.00;99.90;;;;;;5090133;28;20028;-71
2022/12/30 09:55:44;;;;;;;25.63;16.17;;;6.00;99.90;;;;;;5089525;28;20059;-71
2022/12/30 09:58:14;;;;;;;25.80;17.35;;;5.80;99.90;;;;;;5091738;28;20574;-71
2022/12/30 10:00:40;;;;;;;20.45;13.38;;;5.80;99.90;;;;;;5100446;28;20473;-70
2022/12/30 10:03:14;;;;;;;21.40;12.00;;;5.90;99.90;;;;;;5109168;28;20039;-71
2022/12/30 10:06:17;;;;;;;17.05;11.65;;;5.90;99.90;;;;;;5108026;28;20085;-71
2022/12/30 10:09:02;;;;;;;11.82;7.35;;;5.90;99.90;;;;;;5108764;28;20103;-71
2022/12/30 10:11:33;;;;;;;;;;;5.80;99.90;;;;;;5110427;28;20042;-71
2022/12/30 10:14:23;;;;;;;17.70;8.73;;;5.90;99.90;;;;;;5090606;28;19951;-71
2022/12/30 10:16:55;;;;;;;13.68;8.57;;;5.90;99.90;;;;;;5071209;28;20405;-70
2022/12/30 10:19:42;;;;;;;14.63;9.88;;;5.80;99.90;;;;;;5094181;28;20032;-70
2022/12/30 10:22:25;;;;;;;14.93;9.00;;;5.90;99.90;;;;;;5103923;28;20030;-71
2022/12/30 10:25:20;;;;;;;16.73;8.38;;;5.80;99.90;;;;;;5089124;28;20428;-70
2022/12/30 10:27:52;;;;;;;43.35;25.05;;;5.80;99.90;;;;;;5063301;28;20049;-71
2022/12/30 10:30:20;;;;;;;22.52;13.35;;;6.10;99.90;;;;;;5089661;28;20099;-71
2022/12/30 10:33:06;;;;;;;17.33;9.52;;;6.20;99.90;;;;;;5099573;28;20039;-71
2022/12/30 10:35:33;;;;;;;15.77;8.93;;;6.20;99.90;;;;;;5090435;28;20035;-71
2022/12/30 10:38:11;;;;;;;16.15;9.77;;;6.30;99.90;;;;;;5098546;28;20024;-71
2022/12/30 10:40:55;;;;;;;15.55;10.20;;;6.30;99.90;;;;;;5099561;28;20016;-71
2022/12/30 10:43:29;;;;;;;14.30;9.07;;;6.30;99.90;;;;;;5095799;28;20085;-71
2022/12/30 10:46:18;;;;;;;12.93;8.15;;;6.30;99.90;;;;;;5103473;28;20084;-71
2022/12/30 10:48:59;;;;;;;12.10;8.05;;;6.30;99.90;;;;;;5104788;28;20131;-70
2022/12/30 10:51:26;;;;;;;14.70;9.52;;;6.40;99.90;;;;;;5105239;28;20015;-71
2022/12/30 10:53:53;;;;;;;11.88;7.90;;;6.50;99.90;;;;;;5105406;28;20477;-71
2022/12/30 10:56:26;;;;;;;14.68;8.82;;;6.50;99.90;;;;;;5092730;28;20669;-71
2022/12/30 10:58:56;;;;;;;17.02;8.95;;;6.50;99.90;;;;;;5105622;28;20051;-71
2022/12/30 11:01:26;;;;;;;14.90;9.00;;;6.60;99.90;;;;;;5105280;28;20040;-70
2022/12/30 11:03:56;;;;;;;14.07;8.23;;;6.60;99.90;;;;;;5105207;28;20032;-71
2022/12/30 11:06:23;;;;;;;14.65;7.47;;;6.50;99.90;;;;;;5103684;28;20619;-70
2022/12/30 11:08:50;;;;;;;14.02;8.27;;;6.60;99.90;;;;;;5105018;28;20043;-70
2022/12/30 11:11:16;;;;;;;13.07;7.57;;;6.60;99.90;;;;;;5105278;28;20020;-70
2022/12/30 11:16:39;;;;;;;14.52;8.40;;;6.60;99.90;;;;;;5104641;28;20101;-70
2022/12/30 11:19:17;;;;;;;12.38;8.07;;;6.60;99.90;;;;;;5104581;28;20039;-71
2022/12/30 11:21:43;;;;;;;13.40;7.30;;;6.70;99.90;;;;;;5103928;28;20404;-71
2022/12/30 11:24:15;;;;;;;11.68;6.30;;;6.70;99.90;;;;;;5105261;28;20016;-71
2022/12/30 11:26:47;;;;;;;11.77;6.68;;;6.70;99.90;;;;;;5104517;28;20126;-71
2022/12/30 11:29:16;;;;;;;9.82;5.60;;;6.70;99.90;;;;;;5105035;28;20026;-71
2022/12/30 11:31:47;;;;;;;10.30;6.43;;;6.70;99.90;;;;;;5098543;28;20039;-71
2022/12/30 11:34:31;;;;;;;12.82;6.25;;;6.80;99.90;;;;;;5104960;28;20078;-71
2022/12/30 11:36:58;;;;;;;12.33;7.07;;;6.80;99.90;;;;;;5104448;28;20112;-71
2022/12/30 11:39:24;;;;;;;14.15;7.10;;;6.90;99.90;;;;;;5104429;28;20922;-71
2022/12/30 11:41:55;;;;;;;13.70;8.52;;;7.00;99.90;;;;;;5107340;28;20043;-71
2022/12/30 11:44:27;;;;;;;13.27;7.13;;;7.10;99.90;;;;;;5109081;28;20027;-71
2022/12/30 11:46:56;;;;;;;14.55;7.80;;;7.30;99.90;;;;;;5100382;28;20027;-71
2022/12/30 11:49:21;;;;;;;12.68;7.68;;;7.40;99.90;;;;;;5100201;28;20032;-70
2022/12/30 11:51:50;;;;;;;12.27;8.45;;;7.40;99.90;;;;;;5103339;28;20108;-70
2022/12/30 11:54:20;;;;;;;14.73;10.30;;;7.40;99.90;;;;;;5098290;28;20034;-70
2022/12/30 11:56:57;;;;;;;14.15;8.82;;;7.40;99.90;;;;;;5106252;28;20055;-70
2022/12/30 11:59:32;;;;;;;12.98;7.45;;;7.30;99.90;;;;;;5108238;28;20036;-70
2022/12/30 12:02:02;;;;;;;13.38;8.13;;;7.40;99.90;;;;;;5104413;28;20377;-70
2022/12/30 12:04:37;;;;;;;11.25;7.68;;;7.30;99.90;;;;;;5108235;28;20116;-71
2022/12/30 12:07:20;;;;;;;12.25;5.75;;;7.20;99.90;;;;;;5104234;28;20031;-71
2022/12/30 12:10:04;;;;;;;12.05;6.40;;;7.10;99.90;;;;;;5095105;28;20038;-71
2022/12/30 12:12:47;;;;;;;11.20;6.18;;;7.20;99.90;;;;;;5105119;28;20469;-71
2022/12/30 12:15:41;;;;;;;10.32;6.40;;;7.40;99.90;;;;;;5101887;28;20433;-71
2022/12/30 12:18:20;;;;;;;11.20;6.85;;;7.50;99.90;;;;;;5095885;28;20031;-71
2022/12/30 12:21:05;;;;;;;13.23;7.72;;;7.60;99.90;;;;;;5104480;28;20023;-71
2022/12/30 12:23:31;;;;;;;10.32;5.53;;;7.50;99.90;;;;;;5105678;28;20046;-72
2022/12/30 12:26:25;;;;;;;11.38;6.88;;;7.40;99.90;;;;;;5097746;28;20036;-71
2022/12/30 12:28:52;;;;;;;12.73;6.47;;;7.40;99.90;;;;;;5099559;28;20108;-70
2022/12/30 12:31:21;;;;;;;11.50;6.75;;;7.40;99.90;;;;;;5102877;27;20035;-71
2022/12/30 12:34:04;;;;;;;12.20;6.88;;;7.60;99.90;;;;;;5104098;28;20031;-71
2022/12/30 12:36:51;;;;;;;16.17;10.30;;;7.60;99.90;;;;;;5100963;28;20057;-71
2022/12/30 12:39:54;;;;;;;10.55;6.35;;;7.60;99.90;;;;;;5107728;28;20031;-71
2022/12/30 12:42:37;;;;;;;9.10;5.50;;;7.60;99.90;;;;;;5101894;28;20131;-71
2022/12/30 12:45:13;;;;;;;11.65;6.15;;;7.50;99.90;;;;;;5104517;28;20028;-71
2022/12/30 12:47:39;;;;;;;13.45;6.32;;;7.40;99.90;;;;;;5106603;28;20020;-71
2022/12/30 12:50:29;;;;;;;10.85;5.32;;;7.40;99.90;;;;;;5107215;28;20481;-71
2022/12/30 12:53:06;;;;;;;8.75;5.88;;;7.50;99.90;;;;;;5106476;28;20023;-71
2022/12/30 12:55:44;;;;;;;12.15;5.60;;;7.40;99.90;;;;;;5107087;28;20024;-71
2022/12/30 12:58:14;;;;;;;9.70;5.95;;;7.40;99.90;;;;;;5106409;28;20514;-71
2022/12/30 13:00:51;;;;;;;9.77;6.15;;;7.40;99.90;;;;;;5106131;28;20494;-71
2022/12/30 13:03:29;;;;;;;10.90;6.45;;;7.50;99.90;;;;;;5107568;28;20028;-71
2022/12/30 13:06:03;;;;;;;9.85;6.50;;;7.50;99.90;;;;;;5105210;28;20181;-71
2022/12/30 13:08:56;;;;;;;10.30;6.22;;;7.50;99.90;;;;;;5105575;28;20024;-71
2022/12/30 13:11:40;;;;;;;11.57;5.85;;;7.70;99.90;;;;;;5094495;28;20442;-71
2022/12/30 13:14:18;;;;;;;13.13;7.47;;;7.60;99.90;;;;;;5103814;28;20062;-71
2022/12/30 13:16:48;;;;;;;14.48;6.80;;;7.50;99.90;;;;;;5086655;28;20039;-71
2022/12/30 13:19:16;;;;;;;14.52;8.48;;;7.50;99.90;;;;;;5105523;28;20024;-71
2022/12/30 13:21:45;;;;;;;16.50;8.48;;;7.50;99.90;;;;;;5099185;28;20032;-71
2022/12/30 13:24:18;;;;;;;12.80;8.02;;;7.50;99.90;;;;;;5096016;28;20039;-71
2022/12/30 13:26:44;;;;;;;13.35;7.30;;;7.50;99.90;;;;;;5102634;28;20109;-71
2022/12/30 13:29:12;;;;;;;11.52;7.43;;;7.50;99.90;;;;;;5101040;28;20031;-71
2022/12/30 13:31:44;;;;;;;12.52;7.40;;;7.50;99.90;;;;;;5106724;27;20470;-70
2022/12/30 13:34:28;;;;;;;14.60;6.35;;;7.50;99.90;;;;;;5097690;28;20529;-71
2022/12/30 13:37:11;;;;;;;11.25;6.95;;;7.40;99.90;;;;;;5099161;28;20036;-71
2022/12/30 13:39:39;;;;;;;11.23;6.80;;;7.40;99.90;;;;;;5103276;28;20581;-71
2022/12/30 13:42:30;;;;;;;12.85;6.88;;;7.40;99.90;;;;;;5092521;28;20039;-71
2022/12/30 13:44:56;;;;;;;13.07;7.47;;;7.50;99.90;;;;;;5106123;28;20039;-71
2022/12/30 13:47:35;;;;;;;16.05;7.40;;;7.40;99.90;;;;;;5097152;28;20023;-71
2022/12/30 13:50:21;;;;;;;10.70;7.07;;;7.50;99.90;;;;;;5095212;28;20427;-70
2022/12/30 13:52:56;;;;;;;15.02;8.18;;;7.50;99.90;;;;;;5104042;28;20031;-71
2022/12/30 13:55:28;;;;;;;15.38;6.88;;;7.50;99.90;;;;;;5106173;28;20389;-71
2022/12/30 13:58:08;;;;;;;11.73;6.75;;;7.50;99.90;;;;;;5103936;28;20381;-71
2022/12/30 14:00:38;;;;;;;14.60;8.55;;;7.40;99.90;;;;;;5103958;28;20096;-70
2022/12/30 14:03:09;;;;;;;13.15;7.00;;;7.30;99.90;;;;;;5104255;27;20039;-71